createdAt,value
2022-08-03T00:02:17.050Z,155076.94
2022-08-03T00:04:44.721Z,155083.44
2022-08-03T00:07:12.135Z,155087.34
2022-08-03T00:09:39.642Z,155014.69
2022-08-03T00:12:08.790Z,155004.34
2022-08-03T00:14:36.260Z,154960.22
2022-08-03T00:17:04.310Z,154991.38
2022-08-03T00:19:31.793Z,155032.88
2022-08-03T00:21:59.225Z,155028.97
2022-08-03T00:24:26.678Z,154991.38
2022-08-03T00:26:54.067Z,155025.06
2022-08-03T00:29:22.813Z,155004.34
2022-08-03T00:31:52.637Z,154978.41
2022-08-03T00:34:36.736Z,154961.53
2022-08-03T00:37:14.106Z,154944.66
2022-08-03T00:39:43.426Z,154903.19
2022-08-03T00:42:10.839Z,154888.91
2022-08-03T00:44:42.253Z,154892.81
2022-08-03T00:47:11.481Z,154899.31
2022-08-03T00:49:41.106Z,154927.81
2022-08-03T00:52:10.336Z,154911.00
2022-08-03T00:54:38.830Z,154885.06
2022-08-03T00:57:10.105Z,154892.81
2022-08-03T00:59:39.241Z,154868.16
2022-08-03T01:02:11.109Z,154829.28
2022-08-03T01:04:38.496Z,154785.19
2022-08-03T01:07:15.706Z,154778.69
2022-08-03T01:09:54.217Z,154812.41
2022-08-03T01:12:33.025Z,154827.97
2022-08-03T01:15:09.458Z,154848.69
2022-08-03T01:17:44.953Z,154825.38
2022-08-03T01:20:15.975Z,154861.66
2022-08-03T01:23:04.571Z,154864.25
2022-08-03T01:25:45.080Z,154877.25
2022-08-03T01:28:29.944Z,154853.88
2022-08-03T01:31:04.752Z,154851.28
2022-08-03T01:33:37.121Z,154802.06
2022-08-03T01:36:08.345Z,154840.94
2022-08-03T01:38:38.526Z,154855.19
2022-08-03T01:41:09.667Z,154843.53
2022-08-03T01:44:26.756Z,154859.03
2022-08-03T01:46:32.283Z,154807.22
2022-08-03T01:49:00.902Z,154818.88
2022-08-03T01:51:58.400Z,154834.41
2022-08-03T01:54:28.360Z,154834.41
2022-08-03T01:56:59.295Z,154843.53
2022-08-03T01:59:29.265Z,154869.50
2022-08-03T02:02:27.609Z,154783.91
2022-08-03T02:04:49.908Z,154781.28
2022-08-03T02:07:18.037Z,154825.38
2022-08-03T02:09:50.614Z,154786.50
2022-08-03T02:12:19.411Z,154773.53
2022-08-03T02:14:49.560Z,154768.34
2022-08-03T02:17:39.111Z,154742.41
2022-08-03T02:20:09.374Z,154791.66
2022-08-03T02:22:40.041Z,154800.75
2022-08-03T02:25:09.108Z,154734.66
2022-08-03T02:27:41.821Z,154742.41
2022-08-03T02:30:13.353Z,154628.38
2022-08-03T02:32:46.798Z,154660.78
2022-08-03T02:35:17.915Z,154690.59
2022-08-03T02:37:51.130Z,154664.69
2022-08-03T02:40:21.077Z,154662.09
2022-08-03T02:42:52.868Z,154615.38
2022-08-03T02:45:21.958Z,154688.00
2022-08-03T02:47:54.969Z,154621.88
2022-08-03T02:50:24.751Z,154614.13
2022-08-03T02:52:53.810Z,154586.94
2022-08-03T02:55:23.176Z,154564.88
2022-08-03T02:57:52.623Z,154624.50
2022-08-03T03:00:27.597Z,154545.47
2022-08-03T03:02:58.659Z,154599.88
2022-08-03T03:05:54.927Z,154566.19
2022-08-03T03:08:18.759Z,154532.53
2022-08-03T03:10:49.325Z,154524.72
2022-08-03T03:13:23.988Z,154535.09
2022-08-03T03:15:53.061Z,154567.47
2022-08-03T03:18:23.107Z,154509.19
2022-08-03T03:20:52.498Z,154526.03
2022-08-03T03:23:22.298Z,154549.31
2022-08-03T03:25:51.004Z,154527.34
2022-08-03T03:28:18.720Z,154518.28
2022-08-03T03:30:52.596Z,154528.63
2022-08-03T03:33:22.693Z,154496.25
2022-08-03T03:35:51.558Z,154518.28
2022-08-03T03:38:19.535Z,154548.03
2022-08-03T03:40:47.321Z,154493.63
2022-08-03T03:43:14.799Z,154506.63
2022-08-03T03:45:42.904Z,154514.38
2022-08-03T03:48:10.819Z,154528.63
2022-08-03T03:50:40.921Z,154511.78
2022-08-03T03:53:11.036Z,154546.78
2022-08-03T03:55:59.178Z,154563.59
2022-08-03T03:58:26.192Z,154623.19
2022-08-03T04:00:53.882Z,154646.53
2022-08-03T04:03:21.506Z,154656.91
2022-08-03T04:06:07.916Z,154654.34
2022-08-03T04:08:52.987Z,154619.28
2022-08-03T04:11:29.165Z,154592.09
2022-08-03T04:14:04.332Z,154603.72
2022-08-03T04:16:35.958Z,154594.69
2022-08-03T04:19:09.063Z,154654.34
2022-08-03T04:21:41.725Z,154662.09
2022-08-03T04:24:11.420Z,154669.84
2022-08-03T04:26:42.629Z,154662.09
2022-08-03T04:29:12.728Z,154655.66
2022-08-03T04:31:41.130Z,154673.75
2022-08-03T04:34:08.918Z,154723.00
2022-08-03T04:36:44.577Z,154774.84
2022-08-03T04:39:19.017Z,154809.81
2022-08-03T04:42:02.340Z,154853.88
2022-08-03T04:44:38.522Z,154835.72
2022-08-03T04:47:06.077Z,154903.19
2022-08-03T04:49:34.236Z,154905.78
2022-08-03T04:52:03.650Z,154983.56
2022-08-03T04:54:31.906Z,154949.88
2022-08-03T04:56:59.425Z,155004.34
2022-08-03T04:59:26.879Z,155065.25
2022-08-03T05:01:54.299Z,155118.50
2022-08-03T05:04:21.729Z,155156.16
2022-08-03T05:06:54.873Z,155197.66
2022-08-03T05:09:45.969Z,155323.56
2022-08-03T05:12:14.818Z,155444.25
2022-08-03T05:14:42.378Z,155474.13
2022-08-03T05:17:09.867Z,155548.22
2022-08-03T05:19:37.568Z,155605.31
2022-08-03T05:22:05.012Z,155731.41
2022-08-03T05:24:33.745Z,155810.66
2022-08-03T05:27:02.747Z,155879.53
2022-08-03T05:29:30.146Z,155848.38
2022-08-03T05:31:57.663Z,155837.94
2022-08-03T05:34:25.331Z,155811.94
2022-08-03T05:36:52.730Z,155745.69
2022-08-03T05:39:20.186Z,155728.78
2022-08-03T05:41:48.979Z,155661.19
2022-08-03T05:44:16.464Z,155680.69
2022-08-03T05:46:43.959Z,155697.59
2022-08-03T05:49:11.423Z,155731.41
2022-08-03T05:51:38.903Z,155788.56
2022-08-03T05:54:06.372Z,155766.50
2022-08-03T05:56:33.828Z,155766.50
2022-08-03T05:59:16.501Z,155785.97
2022-08-03T06:01:52.101Z,155796.34
2022-08-03T06:04:19.663Z,155850.94
2022-08-03T06:06:47.650Z,155860.06
2022-08-03T06:09:15.293Z,155897.78
2022-08-03T06:11:42.714Z,155936.78
2022-08-03T06:14:14.724Z,155955.00
2022-08-03T06:16:42.250Z,156007.00
2022-08-03T06:19:09.696Z,156035.59
2022-08-03T06:21:37.386Z,156048.59
2022-08-03T06:24:07.994Z,156069.38
2022-08-03T06:26:35.617Z,156034.28
2022-08-03T06:29:03.886Z,156051.22
2022-08-03T06:31:33.797Z,156051.22
2022-08-03T06:34:33.936Z,156066.78
2022-08-03T06:36:51.154Z,156095.44
2022-08-03T06:39:20.248Z,156124.06
2022-08-03T06:41:47.652Z,156144.88
2022-08-03T06:44:15.330Z,156179.97
2022-08-03T06:46:44.083Z,156194.28
2022-08-03T06:49:11.596Z,156246.31
2022-08-03T06:52:03.554Z,156272.38
2022-08-03T06:54:26.527Z,156324.47
2022-08-03T06:56:55.367Z,156358.28
2022-08-03T07:00:07.591Z,156380.38
2022-08-03T07:02:12.002Z,156423.34
2022-08-03T07:04:46.338Z,156514.53
2022-08-03T07:07:13.899Z,156530.13
2022-08-03T07:09:41.813Z,156582.22
2022-08-03T07:12:09.661Z,156715.09
2022-08-03T07:14:37.106Z,157027.91
2022-08-03T07:17:11.560Z,157299.19
2022-08-03T07:19:40.948Z,157591.56
2022-08-03T07:22:08.782Z,157707.75
2022-08-03T07:24:36.367Z,157782.19
2022-08-03T07:27:04.265Z,157937.59
2022-08-03T07:29:31.674Z,157464.91
2022-08-03T07:32:02.501Z,157645.06
2022-08-03T07:34:30.260Z,157398.31
2022-08-03T07:36:59.046Z,157374.81
2022-08-03T07:39:26.593Z,157560.22
2022-08-03T07:41:54.035Z,157709.06
2022-08-03T07:44:21.517Z,157709.06
2022-08-03T07:46:50.667Z,157596.75
2022-08-03T07:49:19.733Z,157620.22
2022-08-03T07:52:07.210Z,157377.44
2022-08-03T07:54:36.028Z,157239.13
2022-08-03T07:57:03.543Z,157275.72
2022-08-03T07:59:30.949Z,157220.91
2022-08-03T08:02:18.697Z,157260.06
2022-08-03T08:04:46.249Z,157282.22
2022-08-03T08:07:13.670Z,157207.84
2022-08-03T08:09:44.227Z,157213.03
2022-08-03T08:12:15.154Z,157166.13
2022-08-03T08:14:45.830Z,157201.31
2022-08-03T08:17:13.468Z,157254.84
2022-08-03T08:19:45.960Z,157279.59
2022-08-03T08:22:19.765Z,157327.88
2022-08-03T08:24:59.503Z,157416.59
2022-08-03T08:27:28.537Z,157502.75
2022-08-03T08:30:19.329Z,157494.94
2022-08-03T08:32:47.100Z,157565.41
2022-08-03T08:35:14.678Z,157620.22
2022-08-03T08:37:43.247Z,157637.19
2022-08-03T08:40:21.753Z,157662.00
2022-08-03T08:42:58.378Z,157709.06
2022-08-03T08:45:26.738Z,157519.72
2022-08-03T08:48:00.406Z,157604.59
2022-08-03T08:50:30.671Z,157641.13
2022-08-03T08:53:01.687Z,157718.19
2022-08-03T08:55:58.041Z,157823.91
2022-08-03T08:58:22.545Z,157810.88
2022-08-03T09:00:51.108Z,157784.75
2022-08-03T09:03:25.245Z,157787.38
2022-08-03T09:05:59.265Z,157724.72
2022-08-03T09:08:26.857Z,157809.59
2022-08-03T09:10:55.583Z,157886.69
2022-08-03T09:13:23.481Z,157881.44
2022-08-03T09:16:11.128Z,157929.78
2022-08-03T09:18:39.656Z,158052.63
2022-08-03T09:21:30.663Z,157999.06
2022-08-03T09:24:03.744Z,157916.72
2022-08-03T09:26:35.537Z,157944.16
2022-08-03T09:29:09.621Z,158030.38
2022-08-03T09:31:43.489Z,158119.25
2022-08-03T09:34:12.636Z,158099.63
2022-08-03T09:36:42.904Z,158080.06
2022-08-03T09:39:11.907Z,158029.06
2022-08-03T09:41:42.776Z,157991.19
2022-08-03T09:44:24.007Z,158019.94
2022-08-03T09:46:55.075Z,158209.44
2022-08-03T09:49:23.121Z,158213.38
2022-08-03T09:52:32.153Z,158268.31
2022-08-03T09:54:39.157Z,158306.22
2022-08-03T09:57:07.967Z,158374.19
2022-08-03T09:59:35.546Z,158325.84
2022-08-03T10:02:06.739Z,158274.84
2022-08-03T10:04:34.227Z,158188.56
2022-08-03T10:07:07.006Z,158235.59
2022-08-03T10:09:34.465Z,158289.22
2022-08-03T10:12:11.033Z,158247.34
2022-08-03T10:14:40.312Z,158270.94
2022-08-03T10:17:07.724Z,158304.91
2022-08-03T10:19:35.163Z,158371.56
2022-08-03T10:22:05.549Z,158341.53
2022-08-03T10:24:35.948Z,158291.84
2022-08-03T10:27:05.489Z,158320.59
2022-08-03T10:29:39.267Z,158349.38
2022-08-03T10:32:11.406Z,158255.22
2022-08-03T10:34:44.414Z,158243.47
2022-08-03T10:37:16.433Z,158354.63
2022-08-03T10:39:53.340Z,158357.19
2022-08-03T10:42:24.074Z,158430.47
2022-08-03T10:45:02.312Z,158289.22
2022-08-03T10:47:31.841Z,158370.25
2022-08-03T10:50:00.362Z,158531.19
2022-08-03T10:52:33.688Z,158576.97
2022-08-03T10:55:51.273Z,158563.88
2022-08-03T10:58:57.015Z,158442.22
2022-08-03T11:02:00.533Z,158459.25
2022-08-03T11:04:29.737Z,158546.94
2022-08-03T11:07:22.951Z,158554.75
2022-08-03T11:09:51.955Z,158508.91
2022-08-03T11:12:30.093Z,158529.88
2022-08-03T11:15:01.526Z,158488.00
2022-08-03T11:17:30.900Z,158535.13
2022-08-03T11:19:58.757Z,158571.78
2022-08-03T11:22:28.203Z,158621.47
2022-08-03T11:25:01.906Z,158614.94
2022-08-03T11:27:30.787Z,158611.00
2022-08-03T11:30:01.044Z,158668.63
2022-08-03T11:32:56.221Z,158435.72
2022-08-03T11:35:26.044Z,158422.66
2022-08-03T11:38:10.469Z,158519.41
2022-08-03T11:40:46.118Z,158512.84
2022-08-03T11:43:47.354Z,158454.00
2022-08-03T11:46:28.609Z,158520.69
2022-08-03T11:49:10.498Z,158520.69
2022-08-03T11:51:40.448Z,158608.38
2022-08-03T11:54:08.393Z,158558.69
2022-08-03T11:56:46.097Z,158618.81
2022-08-03T11:59:20.122Z,158768.00
2022-08-03T12:01:48.499Z,158743.16
2022-08-03T12:04:17.418Z,158702.59
2022-08-03T12:06:59.471Z,158769.31
2022-08-03T12:09:26.902Z,158590.03
2022-08-03T12:11:54.929Z,158553.44
2022-08-03T12:14:48.788Z,158497.16
2022-08-03T12:17:17.152Z,158587.47
2022-08-03T12:19:46.458Z,158724.88
2022-08-03T12:22:15.988Z,158791.59
2022-08-03T12:24:46.618Z,158720.94
2022-08-03T12:27:24.912Z,158702.59
2022-08-03T12:29:58.638Z,158711.75
2022-08-03T12:32:28.196Z,158677.75
2022-08-03T12:35:02.401Z,158584.84
2022-08-03T12:37:32.272Z,158668.63
2022-08-03T12:40:10.058Z,158756.25
2022-08-03T12:42:40.243Z,158719.63
2022-08-03T12:45:21.258Z,158707.84
2022-08-03T12:47:56.153Z,158741.84
2022-08-03T12:50:32.159Z,158713.06
2022-08-03T12:53:01.130Z,158720.94
2022-08-03T12:55:57.035Z,158757.56
2022-08-03T12:58:33.580Z,158732.69
2022-08-03T13:01:01.608Z,158668.63
2022-08-03T13:03:42.672Z,158684.28
2022-08-03T13:06:15.766Z,158713.06
2022-08-03T13:08:44.356Z,158689.53
2022-08-03T13:11:22.400Z,158762.81
2022-08-03T13:13:50.041Z,158779.81
2022-08-03T13:16:19.437Z,158715.69
2022-08-03T13:18:48.166Z,158748.41
2022-08-03T13:21:19.768Z,158689.53
2022-08-03T13:23:47.701Z,158666.00
2022-08-03T13:26:15.315Z,158731.38
2022-08-03T13:28:42.764Z,158747.09
2022-08-03T13:31:10.266Z,158715.69
2022-08-03T13:33:39.042Z,158634.53
2022-08-03T13:36:06.957Z,158637.16
2022-08-03T13:38:35.775Z,158699.97
2022-08-03T13:41:05.043Z,158717.00
2022-08-03T13:43:32.690Z,158605.75
2022-08-03T13:46:00.131Z,158571.78
2022-08-03T13:48:36.202Z,158575.66
2022-08-03T13:51:11.747Z,158637.16
2022-08-03T13:53:52.184Z,158667.31
2022-08-03T13:56:19.674Z,158671.19
2022-08-03T13:58:47.112Z,158715.69
2022-08-03T14:01:14.647Z,158754.94
2022-08-03T14:03:43.092Z,158680.38
2022-08-03T14:06:10.580Z,158630.59
2022-08-03T14:08:38.093Z,158655.50
2022-08-03T14:11:07.414Z,158668.63
2022-08-03T14:13:35.024Z,158681.69
2022-08-03T14:16:02.476Z,158639.78
2022-08-03T14:18:33.479Z,158673.81
2022-08-03T14:21:05.999Z,158705.22
2022-08-03T14:23:35.151Z,158647.59
2022-08-03T14:26:02.607Z,158605.75
2022-08-03T14:28:31.391Z,158599.25
2022-08-03T14:30:58.841Z,158590.03
2022-08-03T14:33:28.362Z,158604.44
2022-08-03T14:35:56.305Z,158582.22
2022-08-03T14:38:23.837Z,158576.97
2022-08-03T14:40:53.002Z,158605.75
2022-08-03T14:43:21.198Z,158611.00
2022-08-03T14:45:52.195Z,158618.81
2022-08-03T14:49:02.709Z,158601.84
2022-08-03T14:51:07.565Z,158567.81
2022-08-03T14:53:35.306Z,158556.06
2022-08-03T14:56:07.787Z,158553.44
2022-08-03T14:58:37.390Z,158525.94
2022-08-03T15:02:02.767Z,158537.75
2022-08-03T15:03:54.813Z,158553.44
2022-08-03T15:06:22.244Z,158549.50
2022-08-03T15:09:13.711Z,158566.53
2022-08-03T15:11:38.853Z,158597.94
2022-08-03T15:14:09.328Z,158571.78
2022-08-03T15:16:38.670Z,158566.53
2022-08-03T15:20:01.078Z,158569.13
2022-08-03T15:21:54.025Z,158567.81
2022-08-03T15:24:21.446Z,158582.22
2022-08-03T15:26:48.876Z,158604.44
2022-08-03T15:30:05.230Z,158616.19
2022-08-03T15:32:09.230Z,158582.22
2022-08-03T15:34:37.232Z,158539.06
2022-08-03T15:37:05.204Z,158553.44
2022-08-03T15:39:58.126Z,158510.22
2022-08-03T15:42:28.207Z,158524.63
2022-08-03T15:44:55.858Z,158528.56
2022-08-03T15:47:24.852Z,158501.09
2022-08-03T15:49:52.299Z,158519.41
2022-08-03T15:52:19.713Z,158519.41
2022-08-03T15:54:47.146Z,158501.09
2022-08-03T15:57:14.557Z,158506.34
2022-08-03T15:59:42.192Z,158490.63
2022-08-03T16:02:09.713Z,158461.88
2022-08-03T16:04:38.425Z,158430.47
2022-08-03T16:07:06.763Z,158495.84
2022-08-03T16:09:42.800Z,158506.34
2022-08-03T16:12:15.595Z,158459.25
2022-08-03T16:14:52.473Z,158434.41
2022-08-03T16:17:22.617Z,158446.16
2022-08-03T16:19:54.111Z,158418.72
2022-08-03T16:22:23.140Z,158365.06
2022-08-03T16:24:51.346Z,158354.63
2022-08-03T16:27:56.853Z,158341.53
2022-08-03T16:30:07.994Z,158346.75
2022-08-03T16:32:35.481Z,158363.75
2022-08-03T16:35:04.301Z,158380.75
2022-08-03T16:37:39.534Z,158452.69
2022-08-03T16:40:19.333Z,158406.94
2022-08-03T16:42:47.066Z,158463.19
2022-08-03T16:45:14.532Z,158430.47
2022-08-03T16:47:41.966Z,158401.69
2022-08-03T16:50:17.276Z,158354.63
2022-08-03T16:52:47.471Z,158372.88
2022-08-03T16:55:18.394Z,158352.00
2022-08-03T16:58:03.703Z,158371.56
2022-08-03T17:00:33.000Z,158388.56
2022-08-03T17:03:04.593Z,158315.34
2022-08-03T17:05:47.377Z,158324.53
2022-08-03T17:08:15.629Z,158276.16
2022-08-03T17:10:44.561Z,158286.63
2022-08-03T17:13:20.789Z,158317.97
2022-08-03T17:16:00.738Z,158276.16
2022-08-03T17:18:32.399Z,158276.16
2022-08-03T17:21:04.975Z,158281.41
2022-08-03T17:23:42.575Z,158273.56
2022-08-03T17:26:21.258Z,158244.75
2022-08-03T17:28:57.876Z,158187.25
2022-08-03T17:31:31.153Z,158166.31
2022-08-03T17:34:01.533Z,158129.75
2022-08-03T17:36:53.970Z,158108.81
2022-08-03T17:39:35.922Z,158069.56
2022-08-03T17:42:30.733Z,158061.75
2022-08-03T17:44:57.154Z,158072.19
2022-08-03T17:47:29.220Z,158048.69
2022-08-03T17:50:23.542Z,158026.50
2022-08-03T17:53:07.901Z,157978.09
2022-08-03T17:55:57.042Z,157915.41
2022-08-03T17:58:39.798Z,157867.06
2022-08-03T18:01:59.842Z,157910.19
2022-08-03T18:04:29.642Z,157793.94
2022-08-03T18:06:59.464Z,157745.59
2022-08-03T18:10:03.195Z,157724.72
2022-08-03T18:12:26.874Z,157686.84
2022-08-03T18:15:01.501Z,157638.50
2022-08-03T18:17:55.603Z,157753.44
2022-08-03T18:20:32.145Z,157733.84
2022-08-03T18:23:04.776Z,157711.66
2022-08-03T18:25:38.302Z,157678.97
2022-08-03T18:28:15.260Z,157630.69
2022-08-03T18:30:53.676Z,157692.03
2022-08-03T18:34:16.483Z,157842.22
2022-08-03T18:36:11.242Z,157782.19
2022-08-03T18:38:46.905Z,157690.72
2022-08-03T18:41:22.026Z,157630.69
2022-08-03T18:44:07.862Z,157560.22
2022-08-03T18:46:48.123Z,157591.56
2022-08-03T18:49:29.214Z,157650.25
2022-08-03T18:52:03.538Z,157535.38
2022-08-03T18:54:45.749Z,157463.59
2022-08-03T18:57:38.228Z,157417.91
2022-08-03T19:00:10.545Z,157411.44
2022-08-03T19:02:49.013Z,157273.09
2022-08-03T19:05:21.584Z,157240.44
2022-08-03T19:07:59.722Z,157241.75
2022-08-03T19:10:32.161Z,157194.81
2022-08-03T19:13:05.003Z,157166.13
2022-08-03T19:15:50.951Z,157145.25
2022-08-03T19:18:21.950Z,157197.41
2022-08-03T19:20:57.145Z,157241.75
2022-08-03T19:23:26.031Z,157181.78
2022-08-03T19:25:59.879Z,157153.09
2022-08-03T19:28:30.714Z,157116.56
2022-08-03T19:31:02.832Z,157153.09
2022-08-03T19:33:56.702Z,157103.53
2022-08-03T19:36:26.540Z,157040.94
2022-08-03T19:38:56.927Z,157001.84
2022-08-03T19:41:25.826Z,157072.22
2022-08-03T19:44:04.462Z,157022.66
2022-08-03T19:46:45.191Z,157001.84
2022-08-03T19:49:16.305Z,156950.97
2022-08-03T19:52:01.338Z,156934.00
2022-08-03T19:54:36.614Z,156949.72
2022-08-03T19:57:17.787Z,156921.00
2022-08-03T19:59:49.822Z,156901.41
2022-08-03T20:02:27.004Z,156930.09
2022-08-03T20:04:55.865Z,156861.03
2022-08-03T20:07:24.608Z,156828.44
2022-08-03T20:09:56.036Z,156824.56
2022-08-03T20:12:27.478Z,156791.97
2022-08-03T20:14:58.929Z,156722.88
2022-08-03T20:17:56.566Z,156745.06
2022-08-03T20:20:14.957Z,156711.19
2022-08-03T20:22:46.178Z,156717.72
2022-08-03T20:25:16.331Z,156683.81
2022-08-03T20:28:06.829Z,156678.59
2022-08-03T20:30:43.617Z,156679.91
2022-08-03T20:33:11.690Z,156673.41
2022-08-03T20:35:49.325Z,156699.47
2022-08-03T20:38:17.661Z,156652.56
2022-08-03T20:40:46.332Z,156648.69
2022-08-03T20:43:14.215Z,156691.66
2022-08-03T20:45:59.299Z,156600.44
2022-08-03T20:48:31.259Z,156600.44
2022-08-03T20:50:59.395Z,156595.25
2022-08-03T20:54:00.177Z,156582.22
2022-08-03T20:56:15.810Z,156590.03
2022-08-03T20:58:50.200Z,156591.34
2022-08-03T21:01:27.471Z,156600.44
2022-08-03T21:04:04.548Z,156600.44
2022-08-03T21:06:39.503Z,156577.00
2022-08-03T21:09:07.793Z,156562.69
2022-08-03T21:11:41.806Z,156564.00
2022-08-03T21:14:14.209Z,156539.25
2022-08-03T21:16:45.014Z,156518.41
2022-08-03T21:19:14.072Z,156493.69
2022-08-03T21:21:49.073Z,156498.91
2022-08-03T21:24:18.821Z,156496.28
2022-08-03T21:26:48.413Z,156496.28
2022-08-03T21:29:16.800Z,156491.06
2022-08-03T21:31:45.994Z,156472.88
2022-08-03T21:34:13.470Z,156506.69
2022-08-03T21:36:41.045Z,156501.53
2022-08-03T21:39:11.211Z,156470.28
2022-08-03T21:41:40.762Z,156444.25
2022-08-03T21:44:09.609Z,156454.63
2022-08-03T21:46:40.030Z,156439.00
2022-08-03T21:50:06.831Z,156415.56
2022-08-03T21:51:59.367Z,156415.56
2022-08-03T21:54:34.376Z,156411.63
2022-08-03T21:57:04.842Z,156388.22
2022-08-03T21:59:38.215Z,156379.13
2022-08-03T22:02:15.601Z,156325.72
2022-08-03T22:04:55.659Z,156320.56
2022-08-03T22:07:25.462Z,156334.88
2022-08-03T22:09:53.325Z,156289.31
2022-08-03T22:12:25.707Z,156268.53
2022-08-03T22:15:01.042Z,156261.94
2022-08-03T22:17:55.682Z,156246.31
2022-08-03T22:20:21.087Z,156246.31
2022-08-03T22:22:55.873Z,156212.53
2022-08-03T22:25:28.683Z,156215.13
2022-08-03T22:27:57.322Z,156202.13
2022-08-03T22:30:24.876Z,156176.06
2022-08-03T22:32:54.794Z,156160.50
2022-08-03T22:35:25.497Z,156187.81
2022-08-03T22:37:55.272Z,156137.06
2022-08-03T22:40:22.779Z,156116.28
2022-08-03T22:42:52.073Z,156147.50
2022-08-03T22:46:07.386Z,156105.88
2022-08-03T22:48:09.148Z,156108.44
2022-08-03T22:50:38.042Z,156078.50
2022-08-03T22:53:07.644Z,156082.44
2022-08-03T22:55:35.322Z,156066.78
2022-08-03T22:58:02.736Z,156069.38
2022-08-03T23:00:30.172Z,156061.59
2022-08-03T23:03:01.125Z,156077.22
2022-08-03T23:06:01.277Z,156039.47
2022-08-03T23:08:22.269Z,156053.78
2022-08-03T23:10:51.501Z,156007.00
2022-08-03T23:13:19.967Z,156046.00
2022-08-03T23:15:52.333Z,156031.69
2022-08-03T23:18:21.776Z,156014.78
2022-08-03T23:20:52.311Z,156022.59
2022-08-03T23:23:21.382Z,155994.00
2022-08-03T23:25:50.919Z,155999.16
2022-08-03T23:28:18.988Z,156012.16
2022-08-03T23:30:47.551Z,156018.69
2022-08-03T23:33:15.854Z,156007.00
2022-08-03T23:36:29.294Z,156017.38
2022-08-03T23:38:47.138Z,155978.38
2022-08-03T23:41:15.587Z,155970.59
2022-08-03T23:43:53.757Z,155942.00
2022-08-03T23:46:23.068Z,155944.56
2022-08-03T23:48:50.988Z,155905.56
2022-08-03T23:51:24.799Z,155863.94
2022-08-03T23:54:02.255Z,155874.38
2022-08-03T23:56:37.744Z,155856.16
2022-08-03T23:59:12.631Z,155866.53
